sensor_id;sensor_type;location;lat;lon;timestamp;P1;durP1;ratioP1;P2;durP2;ratioP2
59161;SDS011;44942;48.936;8.260;2024-02-26T00:03:21;0.70;;;0.60;;
59161;SDS011;44942;48.936;8.260;2024-02-26T00:08:21;1.00;;;0.70;;
59161;SDS011;44942;48.936;8.260;2024-02-26T00:13:22;0.82;;;0.70;;
59161;SDS011;44942;48.936;8.260;2024-02-26T00:18:23;0.70;;;0.57;;
59161;SDS011;44942;48.936;8.260;2024-02-26T00:23:23;0.80;;;0.70;;
59161;SDS011;44942;48.936;8.260;2024-02-26T00:28:24;1.43;;;0.70;;
59161;SDS011;44942;48.936;8.260;2024-02-26T00:33:25;0.63;;;0.63;;
59161;SDS011;44942;48.936;8.260;2024-02-26T00:38:25;1.13;;;0.70;;
59161;SDS011;44942;48.936;8.260;2024-02-26T00:43:26;0.90;;;0.70;;
59161;SDS011;44942;48.936;8.260;2024-02-26T00:48:26;0.60;;;0.60;;
59161;SDS011;44942;48.936;8.260;2024-02-26T00:53:27;0.60;;;0.60;;
59161;SDS011;44942;48.936;8.260;2024-02-26T00:58:29;1.17;;;0.60;;
59161;SDS011;44942;48.936;8.260;2024-02-26T01:03:29;0.60;;;0.60;;
59161;SDS011;44942;48.936;8.260;2024-02-26T01:08:30;0.50;;;0.50;;
59161;SDS011;44942;48.936;8.260;2024-02-26T01:13:31;1.77;;;0.60;;
59161;SDS011;44942;48.936;8.260;2024-02-26T01:18:32;0.70;;;0.53;;
59161;SDS011;44942;48.936;8.260;2024-02-26T01:23:32;0.57;;;0.43;;
59161;SDS011;44942;48.936;8.260;2024-02-26T01:28:33;1.30;;;0.50;;
59161;SDS011;44942;48.936;8.260;2024-02-26T01:33:33;1.73;;;0.60;;
59161;SDS011;44942;48.936;8.260;2024-02-26T01:38:34;0.90;;;0.60;;
59161;SDS011;44942;48.936;8.260;2024-02-26T01:43:35;0.77;;;0.60;;
59161;SDS011;44942;48.936;8.260;2024-02-26T01:48:35;0.87;;;0.60;;
59161;SDS011;44942;48.936;8.260;2024-02-26T01:53:36;0.80;;;0.60;;
59161;SDS011;44942;48.936;8.260;2024-02-26T01:58:37;0.55;;;0.50;;
59161;SDS011;44942;48.936;8.260;2024-02-26T02:03:38;0.60;;;0.60;;
59161;SDS011;44942;48.936;8.260;2024-02-26T02:08:38;0.80;;;0.50;;
59161;SDS011;44942;48.936;8.260;2024-02-26T02:13:39;0.60;;;0.50;;
59161;SDS011;44942;48.936;8.260;2024-02-26T02:18:40;0.70;;;0.50;;
59161;SDS011;44942;48.936;8.260;2024-02-26T02:23:40;0.80;;;0.60;;
59161;SDS011;44942;48.936;8.260;2024-02-26T02:28:46;0.98;;;0.40;;
59161;SDS011;44942;48.936;8.260;2024-02-26T02:33:47;3.03;;;0.55;;
59161;SDS011;44942;48.936;8.260;2024-02-26T02:38:51;0.52;;;0.50;;
59161;SDS011;44942;48.936;8.260;2024-02-26T02:43:52;0.55;;;0.50;;
59161;SDS011;44942;48.936;8.260;2024-02-26T02:48:52;0.90;;;0.50;;
59161;SDS011;44942;48.936;8.260;2024-02-26T02:53:53;0.40;;;0.40;;
59161;SDS011;44942;48.936;8.260;2024-02-26T02:58:54;0.57;;;0.40;;
59161;SDS011;44942;48.936;8.260;2024-02-26T03:03:54;1.07;;;0.50;;
59161;SDS011;44942;48.936;8.260;2024-02-26T03:08:55;0.70;;;0.60;;
59161;SDS011;44942;48.936;8.260;2024-02-26T03:13:56;0.40;;;0.40;;
59161;SDS011;44942;48.936;8.260;2024-02-26T03:18:56;0.50;;;0.40;;
59161;SDS011;44942;48.936;8.260;2024-02-26T03:23:57;0.40;;;0.37;;
59161;SDS011;44942;48.936;8.260;2024-02-26T03:28:58;0.50;;;0.50;;
59161;SDS011;44942;48.936;8.260;2024-02-26T03:33:58;2.20;;;0.50;;
59161;SDS011;44942;48.936;8.260;2024-02-26T03:38:59;0.60;;;0.37;;
59161;SDS011;44942;48.936;8.260;2024-02-26T03:43:59;0.60;;;0.57;;
59161;SDS011;44942;48.936;8.260;2024-02-26T03:49:00;0.23;;;0.23;;
59161;SDS011;44942;48.936;8.260;2024-02-26T03:54:01;0.53;;;0.40;;
59161;SDS011;44942;48.936;8.260;2024-02-26T03:59:01;0.70;;;0.40;;
59161;SDS011;44942;48.936;8.260;2024-02-26T04:04:02;0.63;;;0.40;;
59161;SDS011;44942;48.936;8.260;2024-02-26T04:09:03;0.70;;;0.50;;
59161;SDS011;44942;48.936;8.260;2024-02-26T04:14:03;0.30;;;0.30;;
59161;SDS011;44942;48.936;8.260;2024-02-26T04:19:05;0.40;;;0.40;;
59161;SDS011;44942;48.936;8.260;2024-02-26T04:24:06;0.85;;;0.40;;
59161;SDS011;44942;48.936;8.260;2024-02-26T04:29:07;0.67;;;0.40;;
59161;SDS011;44942;48.936;8.260;2024-02-26T04:34:07;0.20;;;0.20;;
59161;SDS011;44942;48.936;8.260;2024-02-26T04:39:08;0.30;;;0.30;;
59161;SDS011;44942;48.936;8.260;2024-02-26T04:44:10;0.50;;;0.50;;
59161;SDS011;44942;48.936;8.260;2024-02-26T04:49:10;0.40;;;0.40;;
59161;SDS011;44942;48.936;8.260;2024-02-26T04:54:11;0.60;;;0.40;;
59161;SDS011;44942;48.936;8.260;2024-02-26T04:59:11;0.77;;;0.30;;
59161;SDS011;44942;48.936;8.260;2024-02-26T05:04:12;0.50;;;0.30;;
59161;SDS011;44942;48.936;8.260;2024-02-26T05:09:12;0.30;;;0.30;;
59161;SDS011;44942;48.936;8.260;2024-02-26T05:14:13;0.23;;;0.23;;
59161;SDS011;44942;48.936;8.260;2024-02-26T05:19:13;0.53;;;0.43;;
59161;SDS011;44942;48.936;8.260;2024-02-26T05:24:14;0.43;;;0.43;;
59161;SDS011;44942;48.936;8.260;2024-02-26T05:29:17;0.50;;;0.50;;
59161;SDS011;44942;48.936;8.260;2024-02-26T05:34:17;0.43;;;0.30;;
59161;SDS011;44942;48.936;8.260;2024-02-26T05:39:18;0.40;;;0.33;;
59161;SDS011;44942;48.936;8.260;2024-02-26T05:44:20;0.47;;;0.30;;
59161;SDS011;44942;48.936;8.260;2024-02-26T05:49:22;1.77;;;0.30;;
59161;SDS011;44942;48.936;8.260;2024-02-26T05:54:23;4.40;;;0.50;;
59161;SDS011;44942;48.936;8.260;2024-02-26T05:59:23;2.50;;;0.50;;
59161;SDS011;44942;48.936;8.260;2024-02-26T06:04:24;1.70;;;0.60;;
59161;SDS011;44942;48.936;8.260;2024-02-26T06:09:24;0.77;;;0.43;;
59161;SDS011;44942;48.936;8.260;2024-02-26T06:14:25;1.07;;;0.40;;
59161;SDS011;44942;48.936;8.260;2024-02-26T06:19:25;0.73;;;0.30;;
59161;SDS011;44942;48.936;8.260;2024-02-26T06:24:26;2.50;;;0.50;;
59161;SDS011;44942;48.936;8.260;2024-02-26T06:29:26;2.00;;;0.30;;
59161;SDS011;44942;48.936;8.260;2024-02-26T06:34:27;0.83;;;0.40;;
59161;SDS011;44942;48.936;8.260;2024-02-26T06:39:28;2.60;;;0.50;;
59161;SDS011;44942;48.936;8.260;2024-02-26T06:44:28;1.20;;;0.70;;
59161;SDS011;44942;48.936;8.260;2024-02-26T06:49:31;0.98;;;0.70;;
59161;SDS011;44942;48.936;8.260;2024-02-26T06:54:32;1.20;;;0.70;;
59161;SDS011;44942;48.936;8.260;2024-02-26T06:59:32;1.40;;;0.97;;
59161;SDS011;44942;48.936;8.260;2024-02-26T07:04:33;2.37;;;0.70;;
59161;SDS011;44942;48.936;8.260;2024-02-26T07:09:35;1.80;;;0.68;;
59161;SDS011;44942;48.936;8.260;2024-02-26T07:14:35;1.87;;;0.90;;
59161;SDS011;44942;48.936;8.260;2024-02-26T07:19:37;1.42;;;0.80;;
59161;SDS011;44942;48.936;8.260;2024-02-26T07:24:38;1.77;;;0.70;;
59161;SDS011;44942;48.936;8.260;2024-02-26T07:29:38;2.63;;;0.70;;
59161;SDS011;44942;48.936;8.260;2024-02-26T07:34:39;3.03;;;0.90;;
59161;SDS011;44942;48.936;8.260;2024-02-26T07:39:41;1.95;;;0.77;;
59161;SDS011;44942;48.936;8.260;2024-02-26T07:44:42;2.90;;;0.83;;
59161;SDS011;44942;48.936;8.260;2024-02-26T07:49:43;7.15;;;0.90;;
59161;SDS011;44942;48.936;8.260;2024-02-26T07:54:44;7.53;;;0.93;;
59161;SDS011;44942;48.936;8.260;2024-02-26T07:59:44;2.30;;;0.77;;
59161;SDS011;44942;48.936;8.260;2024-02-26T09:43:14;4.47;;;1.20;;
59161;SDS011;44942;48.936;8.260;2024-02-26T09:48:17;8.20;;;1.40;;
59161;SDS011;44942;48.936;8.260;2024-02-26T09:53:18;7.07;;;1.67;;
59161;SDS011;44942;48.936;8.260;2024-02-26T09:58:20;7.85;;;1.80;;
59161;SDS011;44942;48.936;8.260;2024-02-26T10:03:21;7.30;;;2.10;;
59161;SDS011;44942;48.936;8.260;2024-02-26T10:08:24;7.20;;;2.00;;
59161;SDS011;44942;48.936;8.260;2024-02-26T10:13:25;8.15;;;1.90;;
59161;SDS011;44942;48.936;8.260;2024-02-26T10:18:26;6.13;;;1.67;;
59161;SDS011;44942;48.936;8.260;2024-02-26T10:23:27;11.15;;;1.90;;
59161;SDS011;44942;48.936;8.260;2024-02-26T10:28:29;8.90;;;1.80;;
59161;SDS011;44942;48.936;8.260;2024-02-26T10:33:31;6.15;;;1.92;;
59161;SDS011;44942;48.936;8.260;2024-02-26T10:38:34;8.18;;;2.00;;
59161;SDS011;44942;48.936;8.260;2024-02-26T10:43:36;5.53;;;2.00;;
59161;SDS011;44942;48.936;8.260;2024-02-26T10:48:36;7.40;;;1.93;;
59161;SDS011;44942;48.936;8.260;2024-02-26T10:53:37;7.83;;;1.70;;
59161;SDS011;44942;48.936;8.260;2024-02-26T10:58:40;8.05;;;1.85;;
59161;SDS011;44942;48.936;8.260;2024-02-26T11:03:42;8.52;;;1.95;;
59161;SDS011;44942;48.936;8.260;2024-02-26T11:08:43;15.93;;;2.15;;
59161;SDS011;44942;48.936;8.260;2024-02-26T11:13:48;11.38;;;2.17;;
59161;SDS011;44942;48.936;8.260;2024-02-26T11:18:51;5.97;;;1.60;;
59161;SDS011;44942;48.936;8.260;2024-02-26T11:23:54;10.00;;;1.90;;
59161;SDS011;44942;48.936;8.260;2024-02-26T11:33:56;6.13;;;1.77;;
59161;SDS011;44942;48.936;8.260;2024-02-26T11:38:57;8.33;;;1.67;;
59161;SDS011;44942;48.936;8.260;2024-02-26T11:44:01;8.53;;;1.90;;
59161;SDS011;44942;48.936;8.260;2024-02-26T11:49:03;4.75;;;1.70;;
59161;SDS011;44942;48.936;8.260;2024-02-26T11:54:39;7.35;;;1.60;;
59161;SDS011;44942;48.936;8.260;2024-02-26T11:59:44;4.83;;;1.60;;
59161;SDS011;44942;48.936;8.260;2024-02-26T12:09:46;3.10;;;1.60;;
59161;SDS011;44942;48.936;8.260;2024-02-26T12:14:53;5.40;;;1.57;;
59161;SDS011;44942;48.936;8.260;2024-02-26T12:19:55;3.83;;;1.33;;
59161;SDS011;44942;48.936;8.260;2024-02-26T12:25:12;2.78;;;1.40;;
59161;SDS011;44942;48.936;8.260;2024-02-26T12:30:13;4.55;;;1.33;;
59161;SDS011;44942;48.936;8.260;2024-02-26T12:35:13;3.57;;;1.40;;
59161;SDS011;44942;48.936;8.260;2024-02-26T12:40:16;5.97;;;1.58;;
59161;SDS011;44942;48.936;8.260;2024-02-26T12:45:17;3.20;;;1.30;;
59161;SDS011;44942;48.936;8.260;2024-02-26T12:50:17;3.33;;;1.43;;
59161;SDS011;44942;48.936;8.260;2024-02-26T12:55:18;4.00;;;1.47;;
59161;SDS011;44942;48.936;8.260;2024-02-26T13:00:21;4.28;;;1.52;;
59161;SDS011;44942;48.936;8.260;2024-02-26T13:05:25;4.07;;;1.40;;
59161;SDS011;44942;48.936;8.260;2024-02-26T13:10:26;5.32;;;1.70;;
59161;SDS011;44942;48.936;8.260;2024-02-26T13:15:27;4.00;;;1.40;;
59161;SDS011;44942;48.936;8.260;2024-02-26T13:20:28;3.17;;;1.48;;
59161;SDS011;44942;48.936;8.260;2024-02-26T13:25:30;7.00;;;1.30;;
59161;SDS011;44942;48.936;8.260;2024-02-26T13:30:31;6.13;;;1.20;;
59161;SDS011;44942;48.936;8.260;2024-02-26T13:35:31;3.23;;;1.20;;
59161;SDS011;44942;48.936;8.260;2024-02-26T13:40:35;7.30;;;1.48;;
59161;SDS011;44942;48.936;8.260;2024-02-26T13:45:36;38.67;;;2.65;;
59161;SDS011;44942;48.936;8.260;2024-02-26T13:50:38;5.70;;;1.20;;
59161;SDS011;44942;48.936;8.260;2024-02-26T13:55:40;4.07;;;1.25;;
59161;SDS011;44942;48.936;8.260;2024-02-26T14:00:44;6.30;;;1.30;;
59161;SDS011;44942;48.936;8.260;2024-02-26T14:05:45;4.47;;;1.47;;
59161;SDS011;44942;48.936;8.260;2024-02-26T14:10:46;4.68;;;1.15;;
59161;SDS011;44942;48.936;8.260;2024-02-26T14:15:46;2.40;;;1.10;;
59161;SDS011;44942;48.936;8.260;2024-02-26T14:20:47;19.67;;;2.43;;
59161;SDS011;44942;48.936;8.260;2024-02-26T14:25:48;13.37;;;1.43;;
59161;SDS011;44942;48.936;8.260;2024-02-26T14:30:48;5.73;;;1.40;;
59161;SDS011;44942;48.936;8.260;2024-02-26T14:35:49;7.40;;;1.10;;
59161;SDS011;44942;48.936;8.260;2024-02-26T14:40:49;8.63;;;1.50;;
59161;SDS011;44942;48.936;8.260;2024-02-26T14:45:50;5.47;;;1.53;;
59161;SDS011;44942;48.936;8.260;2024-02-26T14:50:50;6.03;;;1.07;;
59161;SDS011;44942;48.936;8.260;2024-02-26T14:55:51;5.97;;;1.00;;
59161;SDS011;44942;48.936;8.260;2024-02-26T15:00:52;5.38;;;1.50;;
59161;SDS011;44942;48.936;8.260;2024-02-26T15:05:52;1.90;;;1.37;;
59161;SDS011;44942;48.936;8.260;2024-02-26T15:10:53;4.50;;;1.50;;
59161;SDS011;44942;48.936;8.260;2024-02-26T15:20:54;4.00;;;1.37;;
59161;SDS011;44942;48.936;8.260;2024-02-26T15:25:55;3.73;;;1.60;;
59161;SDS011;44942;48.936;8.260;2024-02-26T15:30:56;5.63;;;1.30;;
59161;SDS011;44942;48.936;8.260;2024-02-26T15:35:56;2.17;;;1.27;;
59161;SDS011;44942;48.936;8.260;2024-02-26T15:40:57;2.17;;;1.13;;
59161;SDS011;44942;48.936;8.260;2024-02-26T15:45:57;3.13;;;1.50;;
59161;SDS011;44942;48.936;8.260;2024-02-26T15:50:58;3.80;;;1.17;;
59161;SDS011;44942;48.936;8.260;2024-02-26T15:55:59;2.47;;;1.27;;
59161;SDS011;44942;48.936;8.260;2024-02-26T16:01:00;2.58;;;1.40;;
59161;SDS011;44942;48.936;8.260;2024-02-26T16:06:00;2.70;;;1.20;;
59161;SDS011;44942;48.936;8.260;2024-02-26T16:11:01;3.70;;;1.33;;
59161;SDS011;44942;48.936;8.260;2024-02-26T16:16:06;2.77;;;1.20;;
59161;SDS011;44942;48.936;8.260;2024-02-26T16:21:11;2.75;;;1.20;;
59161;SDS011;44942;48.936;8.260;2024-02-26T16:26:12;3.67;;;1.50;;
59161;SDS011;44942;48.936;8.260;2024-02-26T16:31:12;1.50;;;1.00;;
59161;SDS011;44942;48.936;8.260;2024-02-26T16:36:13;3.53;;;1.20;;
59161;SDS011;44942;48.936;8.260;2024-02-26T16:41:16;1.73;;;1.13;;
59161;SDS011;44942;48.936;8.260;2024-02-26T16:46:17;2.70;;;1.10;;
59161;SDS011;44942;48.936;8.260;2024-02-26T16:51:18;2.92;;;1.17;;
59161;SDS011;44942;48.936;8.260;2024-02-26T16:56:19;2.08;;;1.15;;
59161;SDS011;44942;48.936;8.260;2024-02-26T17:01:19;2.77;;;1.00;;
59161;SDS011;44942;48.936;8.260;2024-02-26T17:06:20;1.73;;;1.10;;
59161;SDS011;44942;48.936;8.260;2024-02-26T17:11:23;2.20;;;1.40;;
59161;SDS011;44942;48.936;8.260;2024-02-26T17:16:24;2.75;;;1.48;;
59161;SDS011;44942;48.936;8.260;2024-02-26T17:21:24;2.23;;;1.37;;
59161;SDS011;44942;48.936;8.260;2024-02-26T17:26:25;1.23;;;1.03;;
59161;SDS011;44942;48.936;8.260;2024-02-26T17:31:26;1.50;;;1.20;;
59161;SDS011;44942;48.936;8.260;2024-02-26T17:36:27;1.38;;;1.17;;
59161;SDS011;44942;48.936;8.260;2024-02-26T17:41:27;1.83;;;1.30;;
59161;SDS011;44942;48.936;8.260;2024-02-26T17:46:28;3.33;;;1.53;;
59161;SDS011;44942;48.936;8.260;2024-02-26T17:51:28;4.60;;;2.00;;
59161;SDS011;44942;48.936;8.260;2024-02-26T17:56:29;2.63;;;2.10;;
59161;SDS011;44942;48.936;8.260;2024-02-26T18:01:30;2.53;;;1.90;;
59161;SDS011;44942;48.936;8.260;2024-02-26T18:06:30;2.13;;;1.80;;
59161;SDS011;44942;48.936;8.260;2024-02-26T18:11:31;3.50;;;2.10;;
59161;SDS011;44942;48.936;8.260;2024-02-26T18:16:33;2.97;;;1.88;;
59161;SDS011;44942;48.936;8.260;2024-02-26T18:21:34;1.90;;;1.70;;
59161;SDS011;44942;48.936;8.260;2024-02-26T18:26:35;2.50;;;1.70;;
59161;SDS011;44942;48.936;8.260;2024-02-26T18:31:35;4.33;;;2.00;;
59161;SDS011;44942;48.936;8.260;2024-02-26T18:36:36;1.98;;;1.67;;
59161;SDS011;44942;48.936;8.260;2024-02-26T18:41:41;4.32;;;1.95;;
59161;SDS011;44942;48.936;8.260;2024-02-26T18:46:45;4.23;;;1.57;;
59161;SDS011;44942;48.936;8.260;2024-02-26T18:51:45;4.20;;;1.83;;
59161;SDS011;44942;48.936;8.260;2024-02-26T18:56:46;4.87;;;1.90;;
59161;SDS011;44942;48.936;8.260;2024-02-26T19:01:46;6.80;;;2.37;;
59161;SDS011;44942;48.936;8.260;2024-02-26T19:06:47;5.83;;;1.57;;
59161;SDS011;44942;48.936;8.260;2024-02-26T19:16:51;2.40;;;1.83;;
59161;SDS011;44942;48.936;8.260;2024-02-26T19:21:53;5.30;;;1.80;;
59161;SDS011;44942;48.936;8.260;2024-02-26T19:26:55;4.00;;;1.80;;
59161;SDS011;44942;48.936;8.260;2024-02-26T19:31:56;4.27;;;1.73;;
59161;SDS011;44942;48.936;8.260;2024-02-26T19:36:57;3.13;;;1.50;;
59161;SDS011;44942;48.936;8.260;2024-02-26T19:42:01;6.75;;;1.63;;
59161;SDS011;44942;48.936;8.260;2024-02-26T19:47:02;4.37;;;2.30;;
59161;SDS011;44942;48.936;8.260;2024-02-26T19:52:03;2.38;;;1.77;;
59161;SDS011;44942;48.936;8.260;2024-02-26T19:57:04;2.88;;;1.75;;
59161;SDS011;44942;48.936;8.260;2024-02-26T20:02:06;2.83;;;1.90;;
59161;SDS011;44942;48.936;8.260;2024-02-26T20:07:09;3.20;;;1.70;;
59161;SDS011;44942;48.936;8.260;2024-02-26T20:12:10;2.43;;;1.80;;
59161;SDS011;44942;48.936;8.260;2024-02-26T20:17:10;4.85;;;2.03;;
59161;SDS011;44942;48.936;8.260;2024-02-26T20:22:11;2.65;;;1.52;;
59161;SDS011;44942;48.936;8.260;2024-02-26T20:27:15;4.55;;;1.73;;
59161;SDS011;44942;48.936;8.260;2024-02-26T20:32:16;3.17;;;1.70;;
59161;SDS011;44942;48.936;8.260;2024-02-26T20:37:18;2.30;;;1.55;;
59161;SDS011;44942;48.936;8.260;2024-02-26T20:42:21;2.85;;;1.80;;
59161;SDS011;44942;48.936;8.260;2024-02-26T20:47:21;2.83;;;1.97;;
59161;SDS011;44942;48.936;8.260;2024-02-26T20:52:22;2.70;;;2.00;;
59161;SDS011;44942;48.936;8.260;2024-02-26T20:57:22;2.37;;;1.73;;
59161;SDS011;44942;48.936;8.260;2024-02-26T21:02:23;3.37;;;2.00;;
59161;SDS011;44942;48.936;8.260;2024-02-26T21:07:23;2.10;;;1.83;;
59161;SDS011;44942;48.936;8.260;2024-02-26T21:12:24;2.23;;;1.80;;
59161;SDS011;44942;48.936;8.260;2024-02-26T21:17:25;2.67;;;2.00;;
59161;SDS011;44942;48.936;8.260;2024-02-26T21:22:27;3.17;;;1.80;;
59161;SDS011;44942;48.936;8.260;2024-02-26T21:27:27;2.20;;;1.83;;
59161;SDS011;44942;48.936;8.260;2024-02-26T21:32:28;2.27;;;1.57;;
59161;SDS011;44942;48.936;8.260;2024-02-26T21:37:29;2.60;;;1.80;;
59161;SDS011;44942;48.936;8.260;2024-02-26T21:42:30;2.10;;;1.65;;
59161;SDS011;44942;48.936;8.260;2024-02-26T21:47:31;2.87;;;2.13;;
59161;SDS011;44942;48.936;8.260;2024-02-26T21:52:31;2.10;;;1.83;;
59161;SDS011;44942;48.936;8.260;2024-02-26T21:57:32;2.27;;;1.77;;
59161;SDS011;44942;48.936;8.260;2024-02-26T22:02:33;2.45;;;2.10;;
59161;SDS011;44942;48.936;8.260;2024-02-26T22:07:33;3.83;;;1.90;;
59161;SDS011;44942;48.936;8.260;2024-02-26T22:12:34;2.53;;;1.80;;
59161;SDS011;44942;48.936;8.260;2024-02-26T22:22:40;2.47;;;2.10;;
59161;SDS011;44942;48.936;8.260;2024-02-26T22:32:42;2.93;;;1.90;;
59161;SDS011;44942;48.936;8.260;2024-02-26T22:37:42;3.50;;;1.70;;
59161;SDS011;44942;48.936;8.260;2024-02-26T22:42:43;2.08;;;1.80;;
59161;SDS011;44942;48.936;8.260;2024-02-26T22:47:44;3.23;;;2.80;;
59161;SDS011;44942;48.936;8.260;2024-02-26T22:52:45;2.80;;;2.30;;
59161;SDS011;44942;48.936;8.260;2024-02-26T22:57:47;3.08;;;2.50;;
59161;SDS011;44942;48.936;8.260;2024-02-26T23:02:47;2.77;;;2.30;;
59161;SDS011;44942;48.936;8.260;2024-02-26T23:07:48;4.73;;;2.13;;
59161;SDS011;44942;48.936;8.260;2024-02-26T23:12:49;2.47;;;2.00;;
59161;SDS011;44942;48.936;8.260;2024-02-26T23:17:50;3.38;;;2.10;;
59161;SDS011;44942;48.936;8.260;2024-02-26T23:22:54;3.35;;;1.88;;
59161;SDS011;44942;48.936;8.260;2024-02-26T23:27:54;2.67;;;1.90;;
59161;SDS011;44942;48.936;8.260;2024-02-26T23:32:55;2.10;;;1.67;;
59161;SDS011;44942;48.936;8.260;2024-02-26T23:37:56;3.03;;;2.13;;
59161;SDS011;44942;48.936;8.260;2024-02-26T23:42:56;3.10;;;2.47;;
59161;SDS011;44942;48.936;8.260;2024-02-26T23:47:57;2.93;;;2.37;;
59161;SDS011;44942;48.936;8.260;2024-02-26T23:52:57;3.37;;;2.33;;
59161;SDS011;44942;48.936;8.260;2024-02-26T23:57:58;3.45;;;2.28;;
